T. H. Kelly — WDC3264 — position and weather

sailwx.info

Track history (hours):
 
Tides and Currents Weather Stations Pressure Air Temp Water Temp Dewpoint Dewpoint Depression Visibility Wind Speed Wind Dir Waves Ship Positions

T. H. Kelly

Owner: Cooper Marine & Timberlands Corporation, Mobile, AL. More information available from US FCC via Universal Licensing System and Coast Guard Vessel Documentation Center.

Last reported at 2017-Sep-24 01:37 UTC. Time now 2017-Oct-17 11:10 UTC.
Position N 29°33' W 090°24'.
Warning: this ship's position is 23 days out of date.

Length 27 m; draft 3 m.

Type: Towing. MMSI: 367004910.

Date/timePositionNaut miles runAvg speedWind from/ knotsBaromVisibWave heightAir tempDewpointWater temp
2017-Sep-24 01:37N 29°33' W 090°24'1 4.3
2017-Sep-24 01:29N 29°33' W 090°25'1 2.9
2017-Sep-24 00:58N 29°33' W 090°26'2 4.8
2017-Sep-24 00:30N 29°34' W 090°29'2 4.7
2017-Sep-24 00:00N 29°34' W 090°32'2 4.6
2017-Sep-23 23:30N 29°34' W 090°34'2 3.9
2017-Sep-23 23:00N 29°35' W 090°36'2 4.2
2017-Sep-23 22:30N 29°35' W 090°39'2 3.9
2017-Sep-23 22:00N 29°36' W 090°41'2 3.2
2017-Sep-23 21:30N 29°37' W 090°42'2 3.3
2017-Sep-23 21:00N 29°35' W 090°43'1 2.9
2017-Sep-23 20:30N 29°34' W 090°44'1 2.5
2017-Sep-23 20:00N 29°33' W 090°45'118 2.8
2017-Sep-22 01:21N 29°56' W 092°58'4 4.7
2017-Sep-22 00:34N 29°56' W 093°02'0 4.5
2017-Sep-22 00:29N 29°56' W 093°03'2 4.3
2017-Sep-22 00:00N 29°56' W 093°05'2 4.6
2017-Sep-21 23:30N 29°56' W 093°08'2 4.3
2017-Sep-21 23:00N 29°57' W 093°10'2 4.5
2017-Sep-21 22:30N 29°59' W 093°12'2 4.4
2017-Sep-21 22:00N 30°00' W 093°14'2 3.8
2017-Sep-21 21:30N 30°02' W 093°15'2 3.8
2017-Sep-21 21:00N 30°03' W 093°16'2 4.6
2017-Sep-21 20:30N 30°05' W 093°17'1 2.0
2017-Sep-21 20:00N 30°06' W 093°18'0 0.2
2017-Sep-21 19:27N 30°06' W 093°18'0 0.0
2017-Sep-21 19:00N 30°06' W 093°18'0 0.2
2017-Sep-21 18:30N 30°06' W 093°18'2 4.8
2017-Sep-21 18:00N 30°05' W 093°20'2 3.2
2017-Sep-21 17:30N 30°04' W 093°22'0 0.0
2017-Sep-21 17:00N 30°04' W 093°22'0 0.0
2017-Sep-21 16:24N 30°04' W 093°22'0 0.0
2017-Sep-21 16:00N 30°04' W 093°22'0 0.0
2017-Sep-21 15:30N 30°04' W 093°22'0 0.0
2017-Sep-21 15:00N 30°04' W 093°22'0 0.7
2017-Sep-21 14:30N 30°04' W 093°22'0 0.1
2017-Sep-21 14:00N 30°04' W 093°22'2 4.0
2017-Sep-21 13:30N 30°04' W 093°25'3 5.4
2017-Sep-21 13:00N 30°04' W 093°28'3 5.5
2017-Sep-21 12:30N 30°04' W 093°31'3 5.5
2017-Sep-21 12:00N 30°04' W 093°34'3 5.6
2017-Sep-21 11:30N 30°04' W 093°37'3 5.6
2017-Sep-21 11:00N 30°04' W 093°41'71 4.5
2017-Sep-20 19:26N 29°29' W 094°51'3 6.9
2017-Sep-20 19:00N 29°31' W 094°53'3 6.6
2017-Sep-20 18:30N 29°34' W 094°55'3 6.5
2017-Sep-20 18:00N 29°37' W 094°57'3 6.9
2017-Sep-20 17:30N 29°40' W 094°58'3 6.6
2017-Sep-20 17:00N 29°42' W 095°01'3 5.8
2017-Sep-20 16:30N 29°44' W 095°03'3 1.6
2017-Sep-20 14:38N 29°46' W 095°06'0 0.1
2017-Sep-20 13:54N 29°46' W 095°06'0 0.0
2017-Sep-20 09:11N 29°46' W 095°06'0 0.5
2017-Sep-20 08:59N 29°46' W 095°06'0 0.0
2017-Sep-20 06:39N 29°46' W 095°06'1 0.6
2017-Sep-20 05:32N 29°46' W 095°05'0 3.2
2017-Sep-20 05:29N 29°46' W 095°05'2 4.0
2017-Sep-20 05:00N 29°45' W 095°04'2 4.8
2017-Sep-20 04:30N 29°43' W 095°01'2 4.4
2017-Sep-20 04:00N 29°42' W 094°59'3 5.1
2017-Sep-20 03:30N 29°39' W 094°58'3 5.6
2017-Sep-20 02:58N 29°37' W 094°57'3 5.7
2017-Sep-20 02:30N 29°34' W 094°55'3 6.2
2017-Sep-20 02:00N 29°32' W 094°53'65 3.3
2017-Sep-19 06:04N 30°01' W 093°46'2 4.1
2017-Sep-19 05:29N 30°02' W 093°44'2 4.8
2017-Sep-19 05:00N 30°04' W 093°42'2 4.9
2017-Sep-19 04:30N 30°04' W 093°39'2 4.3
2017-Sep-19 04:00N 30°04' W 093°36'2 3.9
2017-Sep-19 03:30N 30°04' W 093°34'2 3.8
2017-Sep-19 03:00N 30°04' W 093°32'2 3.9
2017-Sep-19 02:30N 30°04' W 093°30'2 3.5
2017-Sep-19 02:00N 30°04' W 093°28'2 4.0
2017-Sep-19 01:30N 30°04' W 093°25'2 3.7
2017-Sep-19 01:00N 30°04' W 093°23'2 3.6
2017-Sep-19 00:30N 30°04' W 093°21'2 4.1
2017-Sep-19 00:00N 30°05' W 093°20'1 2.9
2017-Sep-18 23:30N 30°06' W 093°18'1 1.9
2017-Sep-18 23:00N 30°05' W 093°17'1 1.8
2017-Sep-18 22:30N 30°05' W 093°17'0 0.1
2017-Sep-18 22:00N 30°05' W 093°17'0 0.0
2017-Sep-18 21:30N 30°05' W 093°17'0 0.0
2017-Sep-18 21:00N 30°05' W 093°17'0 0.0
2017-Sep-18 20:30N 30°05' W 093°17'0 0.0
2017-Sep-18 20:00N 30°05' W 093°17'0 0.0
2017-Sep-18 19:30N 30°05' W 093°17'0 0.0
2017-Sep-18 19:00N 30°05' W 093°17'0 0.0
2017-Sep-18 18:30N 30°05' W 093°17'0 0.0
2017-Sep-18 18:00N 30°05' W 093°17'0 0.0
2017-Sep-18 17:30N 30°05' W 093°17'0 0.0
2017-Sep-18 17:00N 30°05' W 093°17'0 0.0
2017-Sep-18 16:30N 30°05' W 093°17'0 0.2
2017-Sep-18 16:00N 30°05' W 093°17'2 3.4
2017-Sep-18 15:30N 30°03' W 093°16'1 2.5
2017-Sep-18 15:00N 30°02' W 093°15'2 3.7
2017-Sep-18 14:30N 30°01' W 093°14'2 4.1
2017-Sep-18 14:00N 29°59' W 093°12'2 4.2
2017-Sep-18 13:30N 29°57' W 093°11'2 4.1
2017-Sep-18 13:00N 29°56' W 093°09'2 3.7
2017-Sep-18 12:30N 29°56' W 093°07'41 3.7
2017-Sep-18 01:23N 29°51' W 092°20'1 3.8
2017-Sep-18 00:59N 29°50' W 092°18'2 3.5
2017-Sep-18 00:30N 29°49' W 092°17'2 3.9
2017-Sep-18 00:00N 29°48' W 092°15'2 3.9
2017-Sep-17 23:30N 29°47' W 092°13'1 2.8
2017-Sep-17 23:00N 29°47' W 092°12'2 3.5
2017-Sep-17 22:30N 29°47' W 092°10'2 4.3
2017-Sep-17 22:00N 29°47' W 092°07'2 4.1
2017-Sep-17 21:30N 29°48' W 092°05'59 3.5
2017-Sep-17 04:27N 29°36' W 090°58'2 4.5
2017-Sep-17 04:00N 29°34' W 090°57'2 4.4
2017-Sep-17 03:30N 29°33' W 090°55'2 4.3
2017-Sep-17 02:59N 29°32' W 090°52'2 4.3
2017-Sep-17 02:30N 29°32' W 090°50'2 4.3
2017-Sep-17 02:00N 29°32' W 090°48'2 3.7
2017-Sep-17 01:30N 29°33' W 090°46'2 3.5
2017-Sep-17 01:00N 29°34' W 090°44'2 3.2
2017-Sep-17 00:30N 29°35' W 090°43'2 3.6
2017-Sep-17 00:00N 29°37' W 090°42'2 3.0
2017-Sep-16 23:30N 29°36' W 090°41'2 3.9
2017-Sep-16 23:00N 29°35' W 090°39'2 4.0
2017-Sep-16 22:30N 29°35' W 090°37'2 3.9
2017-Sep-16 22:00N 29°34' W 090°34'2 4.1
2017-Sep-16 21:30N 29°34' W 090°32'10 3.2
2017-Sep-16 18:26N 29°37' W 090°21'  
Track history (hours):
 
Tides and Currents Weather Stations Pressure Air Temp Water Temp Dewpoint Dewpoint Depression Visibility Wind Speed Wind Dir Waves Ship Positions

T. H. Kelly

Owner: Cooper Marine & Timberlands Corporation, Mobile, AL. More information available from US FCC via Universal Licensing System and Coast Guard Vessel Documentation Center.

Last reported at 2017-Sep-24 01:37 UTC. Time now 2017-Oct-17 11:10 UTC.
Position N 29°33' W 090°24'.
Warning: this ship's position is 23 days out of date.

Length 27 m; draft 3 m.

Type: Towing. MMSI: 367004910.

Date/timePositionNaut miles runAvg speedWind from/ knotsBaromVisibWave heightAir tempDewpointWater temp
2017-Sep-24 01:37N 29°33' W 090°24'1 4.3
2017-Sep-24 01:29N 29°33' W 090°25'1 2.9
2017-Sep-24 00:58N 29°33' W 090°26'2 4.8
2017-Sep-24 00:30N 29°34' W 090°29'2 4.7
2017-Sep-24 00:00N 29°34' W 090°32'2 4.6
2017-Sep-23 23:30N 29°34' W 090°34'2 3.9
2017-Sep-23 23:00N 29°35' W 090°36'2 4.2
2017-Sep-23 22:30N 29°35' W 090°39'2 3.9
2017-Sep-23 22:00N 29°36' W 090°41'2 3.2
2017-Sep-23 21:30N 29°37' W 090°42'2 3.3
2017-Sep-23 21:00N 29°35' W 090°43'1 2.9
2017-Sep-23 20:30N 29°34' W 090°44'1 2.5
2017-Sep-23 20:00N 29°33' W 090°45'118 2.8
2017-Sep-22 01:21N 29°56' W 092°58'4 4.7
2017-Sep-22 00:34N 29°56' W 093°02'0 4.5
2017-Sep-22 00:29N 29°56' W 093°03'2 4.3
2017-Sep-22 00:00N 29°56' W 093°05'2 4.6
2017-Sep-21 23:30N 29°56' W 093°08'2 4.3
2017-Sep-21 23:00N 29°57' W 093°10'2 4.5
2017-Sep-21 22:30N 29°59' W 093°12'2 4.4
2017-Sep-21 22:00N 30°00' W 093°14'2 3.8
2017-Sep-21 21:30N 30°02' W 093°15'2 3.8
2017-Sep-21 21:00N 30°03' W 093°16'2 4.6
2017-Sep-21 20:30N 30°05' W 093°17'1 2.0
2017-Sep-21 20:00N 30°06' W 093°18'0 0.2
2017-Sep-21 19:27N 30°06' W 093°18'0 0.0
2017-Sep-21 19:00N 30°06' W 093°18'0 0.2
2017-Sep-21 18:30N 30°06' W 093°18'2 4.8
2017-Sep-21 18:00N 30°05' W 093°20'2 3.2
2017-Sep-21 17:30N 30°04' W 093°22'0 0.0
2017-Sep-21 17:00N 30°04' W 093°22'0 0.0
2017-Sep-21 16:24N 30°04' W 093°22'0 0.0
2017-Sep-21 16:00N 30°04' W 093°22'0 0.0
2017-Sep-21 15:30N 30°04' W 093°22'0 0.0
2017-Sep-21 15:00N 30°04' W 093°22'0 0.7
2017-Sep-21 14:30N 30°04' W 093°22'0 0.1
2017-Sep-21 14:00N 30°04' W 093°22'2 4.0
2017-Sep-21 13:30N 30°04' W 093°25'3 5.4
2017-Sep-21 13:00N 30°04' W 093°28'3 5.5
2017-Sep-21 12:30N 30°04' W 093°31'3 5.5
2017-Sep-21 12:00N 30°04' W 093°34'3 5.6
2017-Sep-21 11:30N 30°04' W 093°37'3 5.6
2017-Sep-21 11:00N 30°04' W 093°41'71 4.5
2017-Sep-20 19:26N 29°29' W 094°51'3 6.9
2017-Sep-20 19:00N 29°31' W 094°53'3 6.6
2017-Sep-20 18:30N 29°34' W 094°55'3 6.5
2017-Sep-20 18:00N 29°37' W 094°57'3 6.9
2017-Sep-20 17:30N 29°40' W 094°58'3 6.6
2017-Sep-20 17:00N 29°42' W 095°01'3 5.8
2017-Sep-20 16:30N 29°44' W 095°03'3 1.6
2017-Sep-20 14:38N 29°46' W 095°06'0 0.1
2017-Sep-20 13:54N 29°46' W 095°06'0 0.0
2017-Sep-20 09:11N 29°46' W 095°06'0 0.5
2017-Sep-20 08:59N 29°46' W 095°06'0 0.0
2017-Sep-20 06:39N 29°46' W 095°06'1 0.6
2017-Sep-20 05:32N 29°46' W 095°05'0 3.2
2017-Sep-20 05:29N 29°46' W 095°05'2 4.0
2017-Sep-20 05:00N 29°45' W 095°04'2 4.8
2017-Sep-20 04:30N 29°43' W 095°01'2 4.4
2017-Sep-20 04:00N 29°42' W 094°59'3 5.1
2017-Sep-20 03:30N 29°39' W 094°58'3 5.6
2017-Sep-20 02:58N 29°37' W 094°57'3 5.7
2017-Sep-20 02:30N 29°34' W 094°55'3 6.2
2017-Sep-20 02:00N 29°32' W 094°53'65 3.3
2017-Sep-19 06:04N 30°01' W 093°46'2 4.1
2017-Sep-19 05:29N 30°02' W 093°44'2 4.8
2017-Sep-19 05:00N 30°04' W 093°42'2 4.9
2017-Sep-19 04:30N 30°04' W 093°39'2 4.3
2017-Sep-19 04:00N 30°04' W 093°36'2 3.9
2017-Sep-19 03:30N 30°04' W 093°34'2 3.8
2017-Sep-19 03:00N 30°04' W 093°32'2 3.9
2017-Sep-19 02:30N 30°04' W 093°30'2 3.5
2017-Sep-19 02:00N 30°04' W 093°28'2 4.0
2017-Sep-19 01:30N 30°04' W 093°25'2 3.7
2017-Sep-19 01:00N 30°04' W 093°23'2 3.6
2017-Sep-19 00:30N 30°04' W 093°21'2 4.1
2017-Sep-19 00:00N 30°05' W 093°20'1 2.9
2017-Sep-18 23:30N 30°06' W 093°18'1 1.9
2017-Sep-18 23:00N 30°05' W 093°17'1 1.8
2017-Sep-18 22:30N 30°05' W 093°17'0 0.1
2017-Sep-18 22:00N 30°05' W 093°17'0 0.0
2017-Sep-18 21:30N 30°05' W 093°17'0 0.0
2017-Sep-18 21:00N 30°05' W 093°17'0 0.0
2017-Sep-18 20:30N 30°05' W 093°17'0 0.0
2017-Sep-18 20:00N 30°05' W 093°17'0 0.0
2017-Sep-18 19:30N 30°05' W 093°17'0 0.0
2017-Sep-18 19:00N 30°05' W 093°17'0 0.0
2017-Sep-18 18:30N 30°05' W 093°17'0 0.0
2017-Sep-18 18:00N 30°05' W 093°17'0 0.0
2017-Sep-18 17:30N 30°05' W 093°17'0 0.0
2017-Sep-18 17:00N 30°05' W 093°17'0 0.0
2017-Sep-18 16:30N 30°05' W 093°17'0 0.2
2017-Sep-18 16:00N 30°05' W 093°17'2 3.4
2017-Sep-18 15:30N 30°03' W 093°16'1 2.5
2017-Sep-18 15:00N 30°02' W 093°15'2 3.7
2017-Sep-18 14:30N 30°01' W 093°14'2 4.1
2017-Sep-18 14:00N 29°59' W 093°12'2 4.2
2017-Sep-18 13:30N 29°57' W 093°11'2 4.1
2017-Sep-18 13:00N 29°56' W 093°09'2 3.7
2017-Sep-18 12:30N 29°56' W 093°07'41 3.7
2017-Sep-18 01:23N 29°51' W 092°20'1 3.8
2017-Sep-18 00:59N 29°50' W 092°18'2 3.5
2017-Sep-18 00:30N 29°49' W 092°17'2 3.9
2017-Sep-18 00:00N 29°48' W 092°15'2 3.9
2017-Sep-17 23:30N 29°47' W 092°13'1 2.8
2017-Sep-17 23:00N 29°47' W 092°12'2 3.5
2017-Sep-17 22:30N 29°47' W 092°10'2 4.3
2017-Sep-17 22:00N 29°47' W 092°07'2 4.1
2017-Sep-17 21:30N 29°48' W 092°05'59 3.5
2017-Sep-17 04:27N 29°36' W 090°58'2 4.5
2017-Sep-17 04:00N 29°34' W 090°57'2 4.4
2017-Sep-17 03:30N 29°33' W 090°55'2 4.3
2017-Sep-17 02:59N 29°32' W 090°52'2 4.3
2017-Sep-17 02:30N 29°32' W 090°50'2 4.3
2017-Sep-17 02:00N 29°32' W 090°48'2 3.7
2017-Sep-17 01:30N 29°33' W 090°46'2 3.5
2017-Sep-17 01:00N 29°34' W 090°44'2 3.2
2017-Sep-17 00:30N 29°35' W 090°43'2 3.6
2017-Sep-17 00:00N 29°37' W 090°42'2 3.0
2017-Sep-16 23:30N 29°36' W 090°41'2 3.9
2017-Sep-16 23:00N 29°35' W 090°39'2 4.0
2017-Sep-16 22:30N 29°35' W 090°37'2 3.9
2017-Sep-16 22:00N 29°34' W 090°34'2 4.1
2017-Sep-16 21:30N 29°34' W 090°32'10 3.2
2017-Sep-16 18:26N 29°37' W 090°21'  

Dump ship's entire track history